Time;durP1;ratioP1;P1;durP2;ratioP2;P2;SDS_P1;SDS_P2;PMS_P1;PMS_P2;Temp;Humidity;BMP_temperature;BMP_pressure;BME280_temperature;BME280_humidity;BME280_pressure;Samples;Min_cycle;Max_cycle;Signal;HPM_P1;HPM_P2
2023/07/10 00:02:03;;;;;;;3.58;1.50;;;21.90;99.90;;;;;;5028589;28;20243;-31
2023/07/10 00:04:30;;;;;;;3.38;1.50;;;21.80;99.90;;;;;;5042402;28;20193;-31
2023/07/10 00:07:04;;;;;;;2.85;1.67;;;21.80;99.90;;;;;;5025868;28;20209;-31
2023/07/10 00:09:34;;;;;;;4.80;1.77;;;21.80;99.90;;;;;;5031226;28;20244;-30
2023/07/10 00:12:04;;;;;;;3.90;1.80;;;21.80;99.90;;;;;;5030647;28;20197;-31
2023/07/10 00:14:34;;;;;;;2.67;1.55;;;21.80;99.90;;;;;;5042011;28;20193;-30
2023/07/10 00:17:07;;;;;;;2.58;1.40;;;21.70;99.90;;;;;;5040763;28;20275;-31
2023/07/10 00:19:37;;;;;;;3.55;1.40;;;21.70;99.90;;;;;;5045775;28;20219;-31
2023/07/10 00:22:07;;;;;;;3.10;1.60;;;21.70;99.90;;;;;;5047215;28;20257;-31
2023/07/10 00:24:34;;;;;;;2.75;1.30;;;21.70;99.90;;;;;;5045826;28;20200;-31
2023/07/10 00:27:10;;;;;;;3.53;1.30;;;21.70;99.90;;;;;;5046509;28;20224;-31
2023/07/10 00:29:40;;;;;;;2.90;1.30;;;21.70;99.90;;;;;;5043249;28;20596;-31
2023/07/10 00:32:12;;;;;;;6.88;1.85;;;21.70;99.90;;;;;;5037819;28;20282;-31
2023/07/10 00:34:40;;;;;;;3.03;1.67;;;21.70;99.90;;;;;;5040861;28;20200;-31
2023/07/10 00:37:12;;;;;;;4.07;1.92;;;21.70;99.90;;;;;;5045915;28;20733;-31
2023/07/10 00:39:39;;;;;;;3.97;1.85;;;21.70;99.90;;;;;;5043381;28;20269;-31
2023/07/10 00:42:17;;;;;;;3.60;1.73;;;21.60;99.90;;;;;;5037411;28;20200;-31
2023/07/10 00:44:57;;;;;;;2.83;1.55;;;21.60;99.90;;;;;;5027069;28;20212;-30
2023/07/10 00:47:35;;;;;;;2.95;2.05;;;21.60;99.90;;;;;;5030970;28;20569;-30
2023/07/10 00:50:24;;;;;;;4.72;1.95;;;21.60;99.90;;;;;;5039259;28;20212;-31
2023/07/10 00:52:55;;;;;;;4.20;1.73;;;21.60;99.90;;;;;;5038486;28;20520;-30
2023/07/10 00:55:30;;;;;;;4.80;1.60;;;21.60;99.90;;;;;;5045510;28;20220;-30
2023/07/10 00:58:27;;;;;;;4.30;1.88;;;21.60;99.90;;;;;;5042909;28;20299;-31
2023/07/10 01:01:05;;;;;;;4.13;1.73;;;21.60;99.90;;;;;;5040950;28;20239;-30
2023/07/10 01:03:40;;;;;;;2.45;1.55;;;21.60;99.90;;;;;;5040163;28;20598;-30
2023/07/10 01:06:14;;;;;;;3.00;1.88;;;21.60;99.90;;;;;;5045219;28;20282;-31
2023/07/10 01:08:52;;;;;;;3.60;2.03;;;21.60;99.90;;;;;;5039719;28;20188;-30
2023/07/10 01:11:19;;;;;;;2.95;1.80;;;21.60;99.90;;;;;;5043304;28;20655;-30
2023/07/10 01:13:52;;;;;;;2.92;1.77;;;21.60;99.90;;;;;;5036414;28;20735;-31
2023/07/10 01:16:19;;;;;;;3.85;1.98;;;21.60;99.90;;;;;;5026363;28;20867;-31
2023/07/10 01:18:48;;;;;;;3.60;1.65;;;21.60;99.90;;;;;;5030445;28;20632;-31
2023/07/10 01:21:27;;;;;;;5.20;1.80;;;21.60;99.90;;;;;;5045938;28;20644;-30
2023/07/10 01:24:05;;;;;;;4.78;1.90;;;21.60;99.90;;;;;;5038664;28;20583;-30
2023/07/10 01:26:38;;;;;;;4.97;2.03;;;21.50;99.90;;;;;;5039178;28;20677;-30
2023/07/10 01:29:19;;;;;;;3.85;1.80;;;21.50;99.90;;;;;;5045911;28;20319;-30
2023/07/10 01:31:51;;;;;;;7.53;2.25;;;21.50;99.90;;;;;;5025311;28;20739;-31
2023/07/10 01:34:28;;;;;;;4.20;1.90;;;21.50;99.90;;;;;;5025641;28;20291;-31
2023/07/10 01:36:58;;;;;;;4.45;2.25;;;21.50;99.90;;;;;;5025167;28;20310;-31
2023/07/10 01:39:36;;;;;;;5.85;1.90;;;21.50;99.90;;;;;;5037009;28;20197;-30
2023/07/10 01:42:06;;;;;;;5.47;2.08;;;21.50;99.90;;;;;;5046753;28;20208;-31
2023/07/10 01:44:39;;;;;;;5.43;2.00;;;21.50;99.90;;;;;;5035781;28;20208;-30
2023/07/10 01:47:13;;;;;;;6.63;2.58;;;21.50;99.90;;;;;;5036222;28;20205;-26
2023/07/10 01:49:48;;;;;;;4.55;2.38;;;21.50;99.90;;;;;;5039412;28;20292;-26
2023/07/10 01:52:18;;;;;;;4.97;2.35;;;21.50;99.90;;;;;;5024823;28;20217;-26
2023/07/10 01:54:46;;;;;;;6.40;2.88;;;21.50;99.90;;;;;;5045004;28;20285;-26
2023/07/10 01:57:22;;;;;;;5.20;2.47;;;21.50;99.90;;;;;;5036957;28;20206;-26
2023/07/10 01:59:51;;;;;;;5.88;2.33;;;21.50;99.90;;;;;;5049774;28;20638;-26
2023/07/10 02:02:19;;;;;;;4.85;2.50;;;21.50;99.90;;;;;;5046184;28;20710;-26
2023/07/10 02:04:46;;;;;;;6.38;2.58;;;21.50;99.90;;;;;;5032732;28;20606;-26
2023/07/10 02:07:14;;;;;;;4.60;2.28;;;21.40;99.90;;;;;;5044713;28;20230;-26
2023/07/10 02:09:43;;;;;;;5.50;2.22;;;21.40;99.90;;;;;;5046609;28;20216;-26
2023/07/10 02:12:13;;;;;;;4.82;2.47;;;21.40;99.90;;;;;;5045851;28;20286;-26
2023/07/10 02:14:45;;;;;;;3.78;2.10;;;21.40;99.90;;;;;;5038729;28;20201;-26
2023/07/10 02:17:12;;;;;;;4.75;2.17;;;21.30;99.90;;;;;;5030644;28;20690;-26
2023/07/10 02:19:42;;;;;;;4.22;1.95;;;21.30;99.90;;;;;;5047612;28;20196;-26
2023/07/10 02:22:12;;;;;;;5.05;2.33;;;21.30;99.90;;;;;;5047847;28;20736;-26
2023/07/10 02:24:41;;;;;;;3.53;1.65;;;21.30;99.90;;;;;;5047045;28;20200;-26
2023/07/10 02:27:09;;;;;;;5.63;1.80;;;21.30;99.90;;;;;;5032869;28;20251;-26
2023/07/10 02:29:44;;;;;;;3.60;1.75;;;21.30;99.90;;;;;;5038206;28;20200;-26
2023/07/10 02:32:11;;;;;;;3.03;1.92;;;21.20;99.90;;;;;;5048624;28;20285;-27
2023/07/10 02:34:41;;;;;;;5.80;2.17;;;21.20;99.90;;;;;;5040778;28;20279;-26
2023/07/10 02:37:10;;;;;;;3.85;1.98;;;21.20;99.90;;;;;;5029927;28;20213;-27
2023/07/10 02:39:37;;;;;;;3.00;1.88;;;21.10;99.90;;;;;;5047449;28;20253;-26
2023/07/10 02:42:10;;;;;;;3.47;2.00;;;21.10;99.90;;;;;;5031615;28;20278;-26
2023/07/10 02:44:42;;;;;;;3.90;2.08;;;21.10;99.90;;;;;;5027188;28;20213;-26
2023/07/10 02:47:11;;;;;;;5.50;2.20;;;21.00;99.90;;;;;;5031197;28;20699;-26
2023/07/10 02:49:41;;;;;;;4.05;1.95;;;21.00;99.90;;;;;;5034544;28;20201;-26
2023/07/10 02:52:13;;;;;;;5.07;1.83;;;21.00;99.90;;;;;;5047498;28;20319;-26
2023/07/10 02:54:41;;;;;;;3.70;1.80;;;20.90;99.90;;;;;;5047976;28;20270;-26
2023/07/10 02:57:10;;;;;;;3.67;2.08;;;20.90;99.90;;;;;;5037690;28;20215;-26
2023/07/10 02:59:38;;;;;;;4.72;2.20;;;20.90;99.90;;;;;;5029366;28;20204;-26
2023/07/10 03:02:10;;;;;;;5.93;2.10;;;20.90;99.90;;;;;;5028268;28;20233;-26
2023/07/10 03:04:37;;;;;;;3.33;2.03;;;20.90;99.90;;;;;;5035099;28;20304;-26
2023/07/10 03:07:12;;;;;;;4.40;1.75;;;20.80;99.90;;;;;;5042057;28;20703;-27
2023/07/10 03:09:41;;;;;;;5.32;2.10;;;20.80;99.90;;;;;;5035053;28;20632;-26
2023/07/10 03:12:09;;;;;;;4.05;2.08;;;20.80;99.90;;;;;;5034855;28;20224;-26
2023/07/10 03:14:36;;;;;;;3.33;2.00;;;20.80;99.90;;;;;;5035613;28;20295;-26
2023/07/10 03:17:04;;;;;;;6.55;2.60;;;20.80;99.90;;;;;;5048333;28;20200;-26
2023/07/10 03:19:33;;;;;;;3.70;1.85;;;20.80;99.90;;;;;;5043451;28;20250;-26
2023/07/10 03:22:05;;;;;;;5.47;2.50;;;20.80;99.90;;;;;;5040361;28;20250;-26
2023/07/10 03:24:33;;;;;;;5.30;2.10;;;20.80;99.90;;;;;;5047716;28;20207;-26
2023/07/10 03:27:03;;;;;;;3.90;2.20;;;20.70;99.90;;;;;;5038817;28;20254;-26
2023/07/10 03:29:32;;;;;;;3.28;2.20;;;20.70;99.90;;;;;;5039220;28;20220;-26
2023/07/10 03:32:02;;;;;;;4.90;2.30;;;20.70;99.90;;;;;;5028476;28;20205;-26
2023/07/10 03:34:29;;;;;;;4.22;2.40;;;20.70;99.90;;;;;;5047933;28;20745;-26
2023/07/10 03:37:02;;;;;;;4.03;2.17;;;20.60;99.90;;;;;;5040245;28;20204;-26
2023/07/10 03:39:30;;;;;;;4.22;2.28;;;20.60;99.90;;;;;;5037994;28;20204;-26
2023/07/10 03:42:02;;;;;;;5.05;2.58;;;20.60;99.90;;;;;;5030906;28;20711;-27
2023/07/10 03:44:32;;;;;;;4.95;2.60;;;20.60;99.90;;;;;;5043104;28;20232;-26
2023/07/10 03:46:59;;;;;;;4.30;2.30;;;20.50;99.90;;;;;;5037033;28;20291;-26
2023/07/10 03:49:29;;;;;;;4.20;2.47;;;20.50;99.90;;;;;;5047684;28;20227;-26
2023/07/10 03:52:04;;;;;;;3.72;2.22;;;20.50;99.90;;;;;;5037041;28;20725;-26
2023/07/10 03:54:36;;;;;;;3.80;2.30;;;20.50;99.90;;;;;;5038797;28;20223;-26
2023/07/10 03:57:08;;;;;;;4.07;2.10;;;20.40;99.90;;;;;;5026654;28;20296;-26
2023/07/10 03:59:35;;;;;;;4.80;2.40;;;20.40;99.90;;;;;;5038790;28;20212;-26
2023/07/10 04:02:02;;;;;;;4.95;2.40;;;20.40;99.90;;;;;;5045914;28;20248;-26
2023/07/10 04:04:29;;;;;;;2.85;2.30;;;20.40;99.90;;;;;;5047192;28;20227;-26
2023/07/10 04:06:59;;;;;;;3.53;2.08;;;20.40;99.90;;;;;;5047144;28;20619;-26
2023/07/10 04:09:28;;;;;;;2.97;2.10;;;20.30;99.90;;;;;;5047196;28;20666;-27
2023/07/10 04:11:56;;;;;;;3.78;2.40;;;20.30;99.90;;;;;;5035955;28;20287;-26
2023/07/10 04:14:25;;;;;;;5.85;2.40;;;20.30;99.90;;;;;;5035786;28;20466;-26
2023/07/10 04:16:55;;;;;;;3.55;2.30;;;20.30;99.90;;;;;;5025296;28;20688;-26
2023/07/10 04:19:27;;;;;;;3.53;2.30;;;20.40;99.90;;;;;;5027167;28;20208;-26
2023/07/10 04:21:56;;;;;;;3.75;2.17;;;20.40;99.90;;;;;;5026004;28;20306;-26
2023/07/10 04:24:23;;;;;;;6.82;2.30;;;20.40;99.90;;;;;;5027112;28;20225;-26
2023/07/10 04:26:53;;;;;;;4.55;2.10;;;20.40;99.90;;;;;;5025343;28;20204;-26
2023/07/10 04:29:20;;;;;;;5.50;2.85;;;20.40;99.90;;;;;;5025505;28;20216;-26
2023/07/10 04:31:47;;;;;;;3.88;2.20;;;20.40;99.90;;;;;;5026269;28;20342;-26
2023/07/10 04:34:16;;;;;;;4.07;2.45;;;20.40;99.90;;;;;;5025488;28;20243;-26
2023/07/10 04:36:47;;;;;;;5.65;2.67;;;20.40;99.90;;;;;;5027009;28;20201;-26
2023/07/10 04:39:16;;;;;;;4.20;2.30;;;20.40;99.90;;;;;;5027406;28;20279;-26
2023/07/10 04:41:48;;;;;;;3.92;2.45;;;20.40;99.90;;;;;;5026798;28;20287;-26
2023/07/10 04:44:20;;;;;;;2.83;2.15;;;20.40;99.90;;;;;;5027327;28;20204;-26
2023/07/10 04:46:47;;;;;;;5.28;2.30;;;20.50;99.90;;;;;;5027794;28;20280;-26
2023/07/10 04:49:15;;;;;;;3.35;2.30;;;20.40;99.90;;;;;;5027047;28;20223;-26
2023/07/10 04:51:44;;;;;;;5.30;2.78;;;20.50;99.90;;;;;;5026829;28;20220;-26
2023/07/10 04:54:14;;;;;;;6.82;2.92;;;20.50;99.90;;;;;;5027102;28;20314;-26
2023/07/10 04:56:46;;;;;;;4.20;2.20;;;20.50;99.90;;;;;;5028308;28;20250;-26
2023/07/10 04:59:13;;;;;;;5.30;2.28;;;20.50;99.90;;;;;;5044986;28;20289;-26
2023/07/10 05:01:40;;;;;;;8.30;2.53;;;20.50;99.90;;;;;;5046090;28;20232;-26
2023/07/10 05:04:13;;;;;;;5.95;2.78;;;20.60;99.90;;;;;;5046519;28;20721;-26
2023/07/10 05:06:42;;;;;;;3.58;2.50;;;20.60;99.90;;;;;;5030759;28;20219;-26
2023/07/10 05:09:09;;;;;;;3.50;2.40;;;20.60;99.90;;;;;;5046319;28;20756;-26
2023/07/10 05:11:36;;;;;;;5.63;2.53;;;20.60;99.90;;;;;;5036362;28;20224;-27
2023/07/10 05:14:06;;;;;;;3.33;2.42;;;20.70;99.90;;;;;;5030115;28;20326;-26
2023/07/10 05:16:38;;;;;;;5.25;2.60;;;20.70;99.90;;;;;;5033016;28;20275;-27
2023/07/10 05:19:08;;;;;;;5.03;2.63;;;20.70;99.90;;;;;;5031216;28;20215;-27
2023/07/10 05:21:37;;;;;;;4.57;2.47;;;20.70;99.90;;;;;;5029750;28;20691;-27
2023/07/10 05:24:05;;;;;;;4.38;2.22;;;20.70;99.90;;;;;;5026063;28;20200;-27
2023/07/10 05:26:34;;;;;;;6.32;2.72;;;20.80;99.90;;;;;;5031864;28;20224;-25
2023/07/10 05:29:04;;;;;;;6.10;2.20;;;20.80;99.90;;;;;;5030595;28;20278;-26
2023/07/10 05:31:34;;;;;;;5.25;2.22;;;20.80;99.90;;;;;;5029384;28;20312;-26
2023/07/10 05:34:07;;;;;;;5.47;2.40;;;20.90;99.90;;;;;;5032002;28;20204;-26
2023/07/10 05:36:34;;;;;;;5.72;2.50;;;20.90;99.90;;;;;;5034816;28;20695;-27
2023/07/10 05:39:02;;;;;;;6.70;2.70;;;21.00;99.90;;;;;;5028180;28;20347;-27
2023/07/10 05:41:34;;;;;;;3.90;2.42;;;21.00;99.90;;;;;;5029615;28;20585;-27
2023/07/10 05:44:02;;;;;;;7.78;2.75;;;21.10;99.90;;;;;;5029572;28;20282;-27
2023/07/10 05:46:31;;;;;;;7.70;2.60;;;21.10;99.90;;;;;;5028716;28;20209;-27
2023/07/10 05:49:01;;;;;;;5.47;2.80;;;21.10;99.90;;;;;;5030023;28;20772;-27
2023/07/10 05:51:30;;;;;;;6.05;2.78;;;21.10;99.90;;;;;;5028136;28;20212;-27
2023/07/10 05:54:02;;;;;;;5.22;2.78;;;21.20;99.90;;;;;;5030582;28;20205;-27
2023/07/10 05:56:31;;;;;;;5.90;2.55;;;21.20;99.90;;;;;;5028593;28;20254;-27
2023/07/10 05:59:01;;;;;;;4.22;2.50;;;21.20;99.90;;;;;;5033861;28;20212;-27
2023/07/10 06:01:31;;;;;;;5.40;2.88;;;21.30;99.90;;;;;;5033531;28;20713;-26
2023/07/10 06:03:58;;;;;;;5.88;2.45;;;21.30;99.90;;;;;;5028698;28;20671;-26
2023/07/10 06:06:25;;;;;;;5.85;2.35;;;21.30;99.90;;;;;;5029652;28;20209;-27
2023/07/10 06:08:57;;;;;;;4.15;2.75;;;21.30;99.90;;;;;;5028355;28;20209;-27
2023/07/10 06:11:29;;;;;;;4.80;2.30;;;21.40;99.90;;;;;;5035598;28;20266;-26
2023/07/10 06:13:57;;;;;;;6.07;2.65;;;21.40;99.90;;;;;;5033466;28;20227;-27
2023/07/10 06:16:25;;;;;;;5.32;2.63;;;21.40;99.90;;;;;;5031370;28;20196;-27
2023/07/10 06:18:54;;;;;;;5.32;2.38;;;21.40;99.90;;;;;;5047883;28;20205;-27
2023/07/10 06:21:21;;;;;;;4.65;2.25;;;21.40;99.90;;;;;;5034500;28;20279;-27
2023/07/10 06:23:48;;;;;;;5.30;2.30;;;21.40;99.90;;;;;;5034476;28;20613;-27
2023/07/10 06:26:16;;;;;;;4.60;2.20;;;21.50;99.90;;;;;;5055959;28;20567;-26
2023/07/10 06:28:45;;;;;;;4.78;2.13;;;21.50;99.90;;;;;;5054591;28;20192;-26
2023/07/10 06:31:17;;;;;;;3.67;2.05;;;21.50;99.90;;;;;;5037172;28;20248;-26
2023/07/10 06:33:44;;;;;;;6.22;2.10;;;21.50;99.90;;;;;;5029533;28;20550;-27
2023/07/10 06:36:11;;;;;;;3.63;2.30;;;21.50;99.90;;;;;;5027645;28;20555;-26
2023/07/10 06:38:39;;;;;;;5.43;1.90;;;21.50;99.90;;;;;;5028753;28;20283;-27
2023/07/10 06:41:10;;;;;;;4.88;1.63;;;21.60;99.90;;;;;;5047247;28;20327;-27
2023/07/10 06:43:43;;;;;;;3.67;1.92;;;21.60;99.90;;;;;;5038778;28;20325;-26
2023/07/10 06:46:13;;;;;;;4.38;1.90;;;21.60;99.90;;;;;;5029958;28;20232;-26
2023/07/10 06:48:40;;;;;;;3.08;1.75;;;21.60;99.90;;;;;;5027806;28;20232;-27
2023/07/10 06:51:10;;;;;;;4.00;2.20;;;21.70;99.90;;;;;;5028403;28;20212;-26
2023/07/10 06:53:39;;;;;;;5.20;1.83;;;21.70;99.90;;;;;;5029189;28;20228;-27
2023/07/10 06:56:09;;;;;;;3.28;1.73;;;21.70;99.90;;;;;;5028941;28;20217;-27
2023/07/10 06:58:38;;;;;;;4.60;1.83;;;21.70;99.90;;;;;;5027051;28;20208;-27
2023/07/10 07:01:08;;;;;;;3.33;1.80;;;21.70;99.90;;;;;;5029374;28;20209;-26
2023/07/10 07:03:40;;;;;;;4.18;1.90;;;21.80;99.90;;;;;;5030602;28;20203;-26
2023/07/10 07:06:08;;;;;;;3.03;1.60;;;21.80;99.90;;;;;;5044778;28;20204;-26
2023/07/10 07:08:35;;;;;;;3.70;1.75;;;21.80;99.90;;;;;;5047343;28;20208;-26
2023/07/10 07:11:05;;;;;;;3.60;1.67;;;21.80;99.90;;;;;;5047960;28;20693;-26
2023/07/10 07:13:37;;;;;;;4.00;1.77;;;21.80;99.90;;;;;;5033451;28;20209;-26
2023/07/10 07:16:04;;;;;;;4.32;1.55;;;21.80;99.90;;;;;;5027269;28;20279;-26
2023/07/10 07:18:32;;;;;;;2.47;1.60;;;21.80;99.90;;;;;;5026698;28;20766;-26
2023/07/10 07:20:59;;;;;;;4.50;1.33;;;21.80;99.90;;;;;;5038885;28;20209;-26
2023/07/10 07:23:29;;;;;;;5.03;1.90;;;21.80;99.90;;;;;;5027631;28;20660;-26
2023/07/10 07:25:59;;;;;;;3.78;1.40;;;21.80;99.90;;;;;;5026712;28;20196;-26
2023/07/10 07:28:29;;;;;;;4.30;1.42;;;21.80;99.90;;;;;;5031959;28;20464;-30
2023/07/10 07:31:03;;;;;;;4.13;1.50;;;21.80;99.90;;;;;;5046169;28;20197;-31
2023/07/10 07:33:31;;;;;;;3.17;1.65;;;21.90;99.90;;;;;;5043996;28;20728;-30
2023/07/10 07:36:00;;;;;;;5.78;1.95;;;21.90;99.90;;;;;;5028642;28;20204;-31
2023/07/10 07:38:32;;;;;;;4.00;1.80;;;21.90;99.90;;;;;;5028260;28;20245;-31
2023/07/10 07:40:59;;;;;;;6.60;1.90;;;21.90;99.90;;;;;;5026305;28;20209;-30
2023/07/10 07:43:31;;;;;;;2.65;1.45;;;22.00;99.90;;;;;;5028567;28;20640;-31
2023/07/10 07:46:00;;;;;;;5.47;1.95;;;22.00;99.90;;;;;;5041829;28;20286;-30
2023/07/10 07:48:28;;;;;;;3.50;1.90;;;22.00;99.90;;;;;;5045153;28;20201;-31
2023/07/10 07:51:04;;;;;;;6.90;2.20;;;22.00;99.90;;;;;;5045705;28;20670;-30
2023/07/10 07:53:35;;;;;;;3.72;1.60;;;22.10;99.90;;;;;;5038707;28;20628;-31
2023/07/10 07:56:07;;;;;;;6.57;1.50;;;22.10;99.90;;;;;;5045274;28;20215;-31
2023/07/10 07:58:35;;;;;;;5.30;1.80;;;22.10;99.90;;;;;;5034603;28;20741;-31
2023/07/10 08:01:02;;;;;;;5.32;1.95;;;22.10;99.90;;;;;;5027503;28;20205;-31
2023/07/10 08:03:35;;;;;;;4.28;1.80;;;22.10;99.90;;;;;;5029678;28;20229;-31
2023/07/10 08:06:06;;;;;;;3.95;1.40;;;22.10;99.90;;;;;;5030619;28;20210;-31
2023/07/10 08:08:36;;;;;;;6.00;1.95;;;22.10;99.90;;;;;;5044036;28;20660;-30
2023/07/10 08:11:08;;;;;;;3.65;1.50;;;22.10;99.90;;;;;;5048699;28;20744;-31
2023/07/10 08:13:35;;;;;;;4.93;1.80;;;22.10;99.90;;;;;;5038916;28;20216;-31
2023/07/10 08:16:05;;;;;;;3.88;1.40;;;22.20;99.90;;;;;;5045792;28;20269;-30
2023/07/10 08:18:38;;;;;;;5.65;1.77;;;22.20;99.90;;;;;;5045924;28;20600;-31
2023/07/10 08:21:13;;;;;;;3.53;1.83;;;22.30;99.90;;;;;;5045705;28;20200;-31
2023/07/10 08:23:42;;;;;;;4.22;1.70;;;22.30;99.90;;;;;;5036811;28;20228;-31
2023/07/10 08:26:14;;;;;;;5.60;1.40;;;22.30;99.90;;;;;;5031769;28;20216;-31
2023/07/10 08:28:44;;;;;;;6.10;1.80;;;22.30;99.90;;;;;;5035682;28;20203;-31
2023/07/10 08:31:16;;;;;;;3.58;1.42;;;22.30;99.90;;;;;;5041870;28;20389;-31
2023/07/10 08:33:50;;;;;;;4.55;1.48;;;22.40;99.90;;;;;;5029236;28;20236;-30
2023/07/10 08:36:21;;;;;;;2.13;1.30;;;22.40;99.90;;;;;;5044375;28;20212;-31
2023/07/10 08:38:49;;;;;;;4.65;1.60;;;22.40;99.90;;;;;;5046675;28;20286;-31
2023/07/10 08:41:21;;;;;;;4.65;1.48;;;22.40;99.90;;;;;;5040900;28;20216;-31
2023/07/10 08:43:53;;;;;;;4.18;1.88;;;22.50;99.90;;;;;;5027441;28;20315;-31
2023/07/10 08:46:25;;;;;;;5.13;1.60;;;22.60;99.90;;;;;;5025282;28;20216;-31
2023/07/10 08:48:58;;;;;;;3.80;1.83;;;22.60;99.90;;;;;;5026689;28;20197;-31
2023/07/10 08:51:45;;;;;;;3.83;1.70;;;22.60;99.90;;;;;;5041045;28;20678;-31
2023/07/10 08:54:18;;;;;;;4.43;1.60;;;22.60;99.90;;;;;;5025286;28;20275;-30
2023/07/10 08:57:23;;;;;;;6.20;1.92;;;22.60;99.90;;;;;;5033931;28;20199;-31
2023/07/10 09:00:04;;;;;;;4.53;1.80;;;22.70;99.90;;;;;;5046417;28;20740;-31
2023/07/10 09:03:08;;;;;;;6.68;2.20;;;22.70;99.90;;;;;;5045912;28;20329;-31
2023/07/10 09:05:38;;;;;;;4.82;1.65;;;22.70;99.90;;;;;;5043899;28;20259;-30
2023/07/10 09:08:14;;;;;;;4.82;1.70;;;22.70;99.90;;;;;;5037808;28;20204;-30
2023/07/10 09:10:50;;;;;;;4.63;1.80;;;22.70;99.90;;;;;;5049086;28;20207;-31
2023/07/10 09:13:39;;;;;;;4.78;2.08;;;22.80;99.90;;;;;;5041537;28;20314;-31
2023/07/10 09:16:20;;;;;;;3.80;1.50;;;22.90;99.90;;;;;;5029767;28;20220;-31
2023/07/10 09:19:12;;;;;;;5.50;1.77;;;22.90;99.90;;;;;;5041237;28;20204;-31
2023/07/10 09:21:43;;;;;;;3.95;1.33;;;22.90;99.90;;;;;;5042772;28;20207;-31
2023/07/10 09:24:25;;;;;;;3.03;1.92;;;22.90;99.90;;;;;;5050448;28;20200;-31
2023/07/10 09:26:55;;;;;;;3.42;1.30;;;22.90;99.90;;;;;;5050506;28;20204;-30
2023/07/10 09:29:33;;;;;;;3.13;1.35;;;22.90;99.90;;;;;;5046685;28;20299;-31
2023/07/10 09:32:11;;;;;;;5.07;1.73;;;23.00;99.90;;;;;;5047353;28;20576;-30
2023/07/10 09:34:46;;;;;;;3.42;1.67;;;23.00;99.90;;;;;;5035267;28;20212;-30
2023/07/10 09:37:18;;;;;;;2.88;1.63;;;23.10;99.90;;;;;;5029951;28;20247;-30
2023/07/10 09:39:45;;;;;;;4.32;1.52;;;23.10;99.90;;;;;;5033700;28;20769;-31
2023/07/10 09:42:29;;;;;;;3.40;1.42;;;23.10;99.90;;;;;;5035053;28;20216;-30
2023/07/10 09:45:06;;;;;;;3.33;1.40;;;23.10;99.90;;;;;;5048337;28;20253;-30
2023/07/10 09:47:40;;;;;;;4.15;1.30;;;23.20;99.90;;;;;;5049878;28;20212;-30
2023/07/10 09:50:15;;;;;;;2.38;1.40;;;23.20;99.90;;;;;;5034959;28;20291;-31
2023/07/10 09:52:50;;;;;;;2.80;1.52;;;23.30;99.90;;;;;;5046957;28;20674;-31
2023/07/10 09:55:20;;;;;;;3.33;1.40;;;23.40;99.90;;;;;;5049461;28;20219;-31
2023/07/10 09:58:14;;;;;;;5.30;1.67;;;23.50;99.90;;;;;;5049681;28;20212;-30
2023/07/10 10:00:48;;;;;;;3.67;1.60;;;23.60;99.90;;;;;;5049715;28;20200;-31
2023/07/10 10:03:18;;;;;;;3.40;1.00;;;23.60;99.90;;;;;;5034924;28;20592;-31
2023/07/10 10:05:54;;;;;;;4.40;1.40;;;23.70;99.90;;;;;;5048015;28;20513;-31
2023/07/10 10:08:25;;;;;;;2.30;1.13;;;23.80;99.90;;;;;;5038595;28;20670;-26
2023/07/10 10:11:07;;;;;;;3.30;1.20;;;23.80;99.90;;;;;;5030829;28;20200;-26
2023/07/10 10:13:43;;;;;;;4.82;1.50;;;23.90;99.90;;;;;;5030982;28;20217;-31
2023/07/10 10:16:29;;;;;;;2.35;1.10;;;24.00;99.90;;;;;;5029244;28;20209;-32
2023/07/10 10:19:04;;;;;;;5.63;1.38;;;24.00;99.90;;;;;;5027669;28;20216;-31
2023/07/10 10:21:36;;;;;;;3.10;1.10;;;24.10;99.90;;;;;;5032399;28;20220;-30
2023/07/10 10:24:11;;;;;;;4.93;1.33;;;24.20;99.90;;;;;;5041466;28;20726;-31
2023/07/10 10:27:06;;;;;;;5.50;1.50;;;24.20;99.90;;;;;;5035602;28;20199;-30
2023/07/10 10:30:00;;;;;;;4.95;1.80;;;24.30;99.90;;;;;;5028702;28;20255;-31
2023/07/10 10:32:28;;;;;;;4.38;1.80;;;24.40;99.90;;;;;;5028996;28;20266;-30
2023/07/10 10:35:24;;;;;;;3.35;1.27;;;24.40;99.90;;;;;;5032594;28;20243;-31
2023/07/10 10:38:02;;;;;;;3.35;1.40;;;24.50;99.90;;;;;;5028971;28;20742;-30
2023/07/10 10:40:29;;;;;;;4.25;1.27;;;24.60;99.90;;;;;;5028453;28;20213;-31
2023/07/10 10:43:23;;;;;;;3.90;1.50;;;24.60;99.90;;;;;;5028274;28;20291;-30
2023/07/10 10:46:08;;;;;;;3.58;1.38;;;24.70;99.90;;;;;;5035211;28;20231;-26
2023/07/10 10:49:05;;;;;;;3.97;1.50;;;24.70;99.90;;;;;;5034206;28;20220;-25
2023/07/10 10:51:56;;;;;;;4.55;1.60;;;24.80;99.90;;;;;;5025456;28;20244;-26
2023/07/10 10:54:37;;;;;;;8.27;1.70;;;24.80;99.90;;;;;;5026765;28;20238;-26
2023/07/10 10:57:24;;;;;;;3.00;1.45;;;24.90;99.90;;;;;;5025841;28;20404;-25
2023/07/10 11:00:28;;;;;;;5.90;1.58;;;24.90;99.90;;;;;;5043096;28;20470;-25
2023/07/10 11:03:32;;;;;;;3.70;1.60;;;25.00;99.90;;;;;;5033349;28;20223;-26
2023/07/10 11:06:16;;;;;;;4.15;1.50;;;25.00;99.90;;;;;;5032534;28;20702;-26
2023/07/10 11:08:50;;;;;;;5.25;1.65;;;25.10;99.90;;;;;;5037726;28;20232;-25
2023/07/10 11:11:33;;;;;;;3.75;1.58;;;25.20;99.90;;;;;;5045407;28;20203;-26
2023/07/10 11:14:05;;;;;;;3.10;1.73;;;25.30;99.90;;;;;;5036155;28;20764;-26
2023/07/10 11:16:37;;;;;;;3.13;1.40;;;25.30;99.90;;;;;;5044639;28;20243;-26
2023/07/10 11:19:05;;;;;;;3.25;1.50;;;25.40;99.90;;;;;;5030918;28;20274;-26
2023/07/10 11:21:35;;;;;;;3.95;1.40;;;25.40;99.90;;;;;;5030056;28;20310;-26
2023/07/10 11:24:16;;;;;;;3.95;1.83;;;25.50;99.90;;;;;;5028118;28;20236;-26
2023/07/10 11:26:50;;;;;;;4.95;1.80;;;25.60;99.90;;;;;;5026653;28;20211;-26
2023/07/10 11:29:35;;;;;;;3.75;1.70;;;25.60;99.90;;;;;;5046997;28;20199;-26
2023/07/10 11:32:17;;;;;;;6.13;2.30;;;25.60;99.90;;;;;;5037108;28;20670;-25
2023/07/10 11:34:53;;;;;;;3.33;1.70;;;25.70;99.90;;;;;;5028169;28;20342;-26
2023/07/10 11:37:35;;;;;;;3.70;1.63;;;25.70;99.90;;;;;;5027830;28;20248;-26
2023/07/10 11:40:27;;;;;;;4.18;1.67;;;25.70;99.90;;;;;;5037267;28;20232;-26
2023/07/10 11:43:02;;;;;;;3.88;1.73;;;25.70;99.90;;;;;;5046227;28;20216;-26
2023/07/10 11:45:35;;;;;;;7.05;2.05;;;25.60;99.90;;;;;;5045807;28;20637;-26
2023/07/10 11:48:54;;;;;;;6.90;2.25;;;25.60;99.90;;;;;;5030321;28;20677;-26
2023/07/10 11:51:27;;;;;;;5.43;1.67;;;25.60;99.90;;;;;;5018397;28;20251;-26
2023/07/10 11:54:12;;;;;;;2.78;1.50;;;25.60;99.90;;;;;;5044889;28;20689;-26
2023/07/10 11:57:01;;;;;;;2.97;1.80;;;25.70;99.90;;;;;;5031233;28;20258;-26
2023/07/10 11:59:29;;;;;;;3.45;1.88;;;25.70;99.90;;;;;;5046476;28;20310;-26
2023/07/10 12:01:56;;;;;;;4.20;2.05;;;25.70;99.90;;;;;;5026643;28;20240;-26
2023/07/10 12:04:27;;;;;;;5.28;1.90;;;25.80;99.90;;;;;;5028389;28;20769;-26
2023/07/10 12:06:58;;;;;;;5.55;2.05;;;25.80;99.90;;;;;;5026684;28;20221;-26
2023/07/10 12:09:28;;;;;;;3.72;1.80;;;25.90;99.90;;;;;;5028460;28;20204;-26
2023/07/10 12:11:58;;;;;;;4.55;1.50;;;25.90;99.90;;;;;;5035459;28;20199;-26
2023/07/10 12:14:28;;;;;;;2.38;1.48;;;26.00;99.90;;;;;;5046928;28;20694;-26
2023/07/10 12:16:59;;;;;;;7.05;2.05;;;26.00;99.90;;;;;;5046784;28;20219;-26
2023/07/10 12:19:39;;;;;;;4.60;1.60;;;26.10;99.90;;;;;;5045352;28;20203;-26
2023/07/10 12:22:29;;;;;;;4.35;1.70;;;26.10;99.90;;;;;;5025751;28;20258;-26
2023/07/10 12:25:00;;;;;;;4.80;1.73;;;26.10;99.90;;;;;;5025768;28;20230;-26
2023/07/10 12:27:35;;;;;;;3.40;1.63;;;26.10;99.90;;;;;;5025881;28;20224;-26
2023/07/10 12:30:23;;;;;;;4.00;1.98;;;26.10;99.90;;;;;;5025387;28;20269;-26
2023/07/10 12:32:54;;;;;;;4.53;2.00;;;26.10;99.90;;;;;;5031050;28;20196;-26
2023/07/10 12:35:40;;;;;;;3.83;1.90;;;26.10;99.90;;;;;;5029813;28;20212;-26
2023/07/10 12:38:11;;;;;;;3.58;1.77;;;26.20;99.90;;;;;;5034363;28;20339;-26
2023/07/10 12:40:39;;;;;;;4.05;1.77;;;26.20;99.90;;;;;;5026732;28;20224;-26
2023/07/10 12:43:33;;;;;;;4.85;1.67;;;26.20;99.90;;;;;;5028724;28;20220;-31
2023/07/10 12:46:13;;;;;;;4.97;2.28;;;26.30;99.90;;;;;;5029709;28;20231;-31
2023/07/10 12:48:43;;;;;;;4.50;2.10;;;26.30;99.90;;;;;;5025658;28;20288;-31
2023/07/10 12:51:22;;;;;;;3.92;1.98;;;26.40;99.90;;;;;;5025734;28;20677;-31
2023/07/10 12:53:51;;;;;;;3.63;1.70;;;26.50;99.90;;;;;;5025173;28;20618;-31
2023/07/10 12:56:22;;;;;;;6.05;2.40;;;26.60;99.90;;;;;;5039245;28;20203;-31
2023/07/10 12:58:52;;;;;;;5.15;1.88;;;26.60;99.90;;;;;;5033959;28;20205;-31
2023/07/10 13:01:32;;;;;;;5.10;2.00;;;26.70;99.90;;;;;;5032489;28;20580;-31
2023/07/10 13:04:03;;;;;;;3.42;1.55;;;26.80;99.90;;;;;;5024871;28;20654;-31
2023/07/10 13:06:32;;;;;;;5.20;2.00;;;26.80;99.90;;;;;;5026482;28;20291;-32
2023/07/10 13:09:04;;;;;;;5.47;2.38;;;26.80;99.90;;;;;;5039907;28;20188;-31
2023/07/10 13:11:35;;;;;;;3.63;1.83;;;26.90;99.90;;;;;;5038966;28;20208;-31
2023/07/10 13:14:29;;;;;;;4.85;2.03;;;26.90;99.90;;;;;;5038340;28;20223;-31
2023/07/10 13:17:09;;;;;;;7.57;1.70;;;27.00;99.90;;;;;;5043953;28;20208;-31
2023/07/10 13:19:41;;;;;;;4.25;1.80;;;27.00;99.90;;;;;;5044899;28;20204;-31